createdAt,value
2022-12-03T00:00:13.572Z,96144.59
2022-12-03T00:02:41.449Z,96129.94
2022-12-03T00:05:09.987Z,96135.16
2022-12-03T00:07:37.524Z,96134.56
2022-12-03T00:10:06.332Z,96125.72
2022-12-03T00:12:33.840Z,96132.97
2022-12-03T00:15:01.300Z,96135.16
2022-12-03T00:17:30.084Z,96142.66
2022-12-03T00:19:57.513Z,96132.50
2022-12-03T00:22:25.120Z,96142.03
2022-12-03T00:24:52.816Z,96133.59
2022-12-03T00:27:20.513Z,96133.13
2022-12-03T00:29:47.979Z,96135.31
2022-12-03T00:32:15.407Z,96126.06
2022-12-03T00:34:44.195Z,96132.78
2022-12-03T00:37:11.638Z,96124.41
2022-12-03T00:39:39.063Z,96122.53
2022-12-03T00:42:06.679Z,96128.28
2022-12-03T00:44:34.139Z,96111.31
2022-12-03T00:47:01.616Z,96113.09
2022-12-03T00:49:29.183Z,96112.50
2022-12-03T00:51:57.954Z,96122.78
2022-12-03T00:54:31.442Z,96118.66
2022-12-03T00:56:59.580Z,96110.44
2022-12-03T00:59:27.152Z,96104.59
2022-12-03T01:01:54.650Z,96115.03
2022-12-03T01:04:22.238Z,96123.50
2022-12-03T01:06:49.754Z,96118.22
2022-12-03T01:09:18.513Z,96125.72
2022-12-03T01:11:45.993Z,96114.06
2022-12-03T01:14:15.357Z,96123.50
2022-12-03T01:16:43.219Z,96106.91
2022-12-03T01:19:15.652Z,96120.59
2022-12-03T01:21:43.419Z,96121.91
2022-12-03T01:24:11.026Z,96120.78
2022-12-03T01:26:40.057Z,96120.16
2022-12-03T01:29:07.835Z,96102.31
2022-12-03T01:31:53.030Z,96124.13
2022-12-03T01:34:20.466Z,96122.72
2022-12-03T01:36:47.920Z,96123.34
2022-12-03T01:39:15.387Z,96122.38
2022-12-03T01:41:44.417Z,96122.72
2022-12-03T01:44:17.917Z,96128.28
2022-12-03T01:46:46.464Z,96135.31
2022-12-03T01:49:17.685Z,96129.72
2022-12-03T01:51:45.667Z,96128.28
2022-12-03T01:54:19.286Z,96129.25
2022-12-03T01:56:48.715Z,96119.34
2022-12-03T01:59:18.054Z,96097.16
2022-12-03T02:01:45.927Z,96107.31
2022-12-03T02:04:15.923Z,96111.13
2022-12-03T02:06:44.987Z,96109.13
2022-12-03T02:09:12.514Z,96117.69
2022-12-03T02:11:41.593Z,96104.53
2022-12-03T02:14:13.115Z,96111.88
2022-12-03T02:16:42.847Z,96109.03
2022-12-03T02:19:20.952Z,96120.31
2022-12-03T02:21:57.049Z,96101.63
2022-12-03T02:24:28.765Z,96107.88
2022-12-03T02:26:57.532Z,96115.13
2022-12-03T02:29:25.350Z,96117.59
2022-12-03T02:31:52.866Z,96113.72
2022-12-03T02:34:38.520Z,96113.88
2022-12-03T02:37:08.423Z,96113.81
2022-12-03T02:39:38.856Z,96112.50
2022-12-03T02:42:25.635Z,96110.19
2022-12-03T02:44:54.176Z,96113.66
2022-12-03T02:47:23.378Z,96122.13
2022-12-03T02:49:51.798Z,96115.59
2022-12-03T02:52:19.703Z,96102.78
2022-12-03T02:54:48.045Z,96068.25
2022-12-03T02:57:17.189Z,96058.09
2022-12-03T02:59:46.088Z,96101.00
2022-12-03T03:02:14.649Z,96100.03
2022-12-03T03:04:43.126Z,96110.28
2022-12-03T03:07:11.450Z,96109.50
2022-12-03T03:09:38.890Z,96096.16
2022-12-03T03:12:07.132Z,96098.91
2022-12-03T03:14:36.505Z,96099.78
2022-12-03T03:17:04.779Z,96106.31
2022-12-03T03:19:32.840Z,96095.28
2022-12-03T03:22:01.396Z,96106.84
2022-12-03T03:24:29.010Z,96108.41
2022-12-03T03:26:56.496Z,96101.09
2022-12-03T03:29:24.037Z,96102.34
2022-12-03T03:31:52.935Z,96107.91
2022-12-03T03:34:20.557Z,96081.94
2022-12-03T03:36:48.040Z,96091.56
2022-12-03T03:39:15.582Z,96099.34
2022-12-03T03:41:44.490Z,96094.91
2022-12-03T03:44:11.924Z,96091.03
2022-12-03T03:46:40.506Z,96097.13
2022-12-03T03:49:10.431Z,96087.69
2022-12-03T03:51:39.597Z,96090.78
2022-12-03T03:54:07.853Z,96090.22
2022-12-03T03:56:35.556Z,96092.53
2022-12-03T03:59:03.872Z,96097.13
2022-12-03T04:01:31.824Z,96098.09
2022-12-03T04:03:59.658Z,96087.25
2022-12-03T04:06:28.815Z,96088.03
2022-12-03T04:08:56.295Z,96097.56
2022-12-03T04:11:41.281Z,96092.91
2022-12-03T04:14:08.765Z,96094.16
2022-12-03T04:16:36.224Z,96097.69
2022-12-03T04:19:03.701Z,96084.06
2022-12-03T04:21:50.291Z,96082.06
2022-12-03T04:24:17.722Z,96088.56
2022-12-03T04:27:03.113Z,96077.72
2022-12-03T04:29:30.572Z,96074.09
2022-12-03T04:32:15.746Z,96084.25
2022-12-03T04:35:01.097Z,96093.25
2022-12-03T04:37:30.075Z,96080.47
2022-12-03T04:39:57.609Z,96080.28
2022-12-03T04:42:25.098Z,96067.47
2022-12-03T04:44:52.913Z,96080.13
2022-12-03T04:47:22.432Z,96080.72
2022-12-03T04:49:51.736Z,96080.88
2022-12-03T04:52:20.676Z,96077.00
2022-12-03T04:54:49.661Z,96066.69
2022-12-03T04:57:17.922Z,96084.88
2022-12-03T04:59:45.340Z,96073.75
2022-12-03T05:02:12.877Z,96074.72
2022-12-03T05:04:40.431Z,96076.94
2022-12-03T05:07:07.857Z,96069.94
2022-12-03T05:09:35.286Z,96079.75
2022-12-03T05:12:04.637Z,96078.16
2022-12-03T05:14:32.148Z,96068.28
2022-12-03T05:16:59.641Z,96081.97
2022-12-03T05:19:47.177Z,96072.78
2022-12-03T05:22:14.613Z,96071.03
2022-12-03T05:24:42.201Z,96070.22
2022-12-03T05:27:10.954Z,96061.38
2022-12-03T05:29:38.410Z,96068.44
2022-12-03T05:32:06.247Z,96055.75
2022-12-03T05:34:33.666Z,96062.28
2022-12-03T05:37:01.085Z,96052.75
2022-12-03T05:39:28.506Z,96055.84
2022-12-03T05:42:13.691Z,96052.66
2022-12-03T05:44:42.439Z,96050.53
2022-12-03T05:47:09.890Z,96062.63
2022-12-03T05:49:37.383Z,96050.88
2022-12-03T05:52:04.998Z,96044.00
2022-12-03T05:54:32.558Z,96047.97
2022-12-03T05:57:00.026Z,96051.16
2022-12-03T05:59:27.466Z,96047.63
2022-12-03T06:01:56.487Z,96056.38
2022-12-03T06:04:24.012Z,96051.53
2022-12-03T06:06:51.507Z,96059.56
2022-12-03T06:09:18.957Z,96054.69
2022-12-03T06:11:46.423Z,96051.31
2022-12-03T06:14:13.876Z,96059.00
2022-12-03T06:16:43.665Z,96055.41
2022-12-03T06:19:12.480Z,96053.81
2022-12-03T06:21:39.946Z,96038.81
2022-12-03T06:24:07.630Z,96045.59
2022-12-03T06:26:35.145Z,96042.41
2022-12-03T06:29:02.584Z,96049.47
2022-12-03T06:31:30.090Z,96044.09
2022-12-03T06:33:57.652Z,96051.41
2022-12-03T06:36:27.704Z,96047.63
2022-12-03T06:38:55.333Z,96039.41
2022-12-03T06:41:22.794Z,96056.25
2022-12-03T06:43:50.201Z,96044.28
2022-12-03T06:46:17.806Z,96041.38
2022-12-03T06:48:45.333Z,96041.00
2022-12-03T06:51:12.839Z,96041.38
2022-12-03T06:53:41.671Z,96046.28
2022-12-03T06:56:09.266Z,96045.69
2022-12-03T06:58:36.750Z,96053.81
2022-12-03T07:01:04.254Z,96055.91
2022-12-03T07:03:31.689Z,96053.19
2022-12-03T07:05:59.121Z,96051.75
2022-12-03T07:08:27.256Z,96058.94
2022-12-03T07:10:56.086Z,96061.75
2022-12-03T07:13:23.491Z,96057.00
2022-12-03T07:15:50.933Z,96052.66
2022-12-03T07:18:18.366Z,96053.81
2022-12-03T07:20:45.773Z,96054.78
2022-12-03T07:23:13.191Z,96057.97
2022-12-03T07:25:40.601Z,96053.63
2022-12-03T07:28:09.330Z,96046.22
2022-12-03T07:30:36.739Z,96054.34
2022-12-03T07:33:04.142Z,96056.56
2022-12-03T07:35:31.541Z,96049.66
2022-12-03T07:37:58.961Z,96055.13
2022-12-03T07:40:26.380Z,96053.72
2022-12-03T07:42:53.813Z,96044.81
2022-12-03T07:45:22.597Z,96047.09
2022-12-03T07:47:50.030Z,96047.97
2022-12-03T07:50:17.806Z,96041.78
2022-12-03T07:52:45.220Z,96051.75
2022-12-03T07:55:13.233Z,96044.91
2022-12-03T07:57:40.725Z,96045.25
2022-12-03T08:00:09.116Z,96057.34
2022-12-03T08:02:37.967Z,96051.94
2022-12-03T08:05:06.237Z,96047.53
2022-12-03T08:07:34.135Z,96048.50
2022-12-03T08:10:01.658Z,96048.84
2022-12-03T08:12:39.882Z,96049.94
2022-12-03T08:15:12.764Z,96042.00
2022-12-03T08:17:42.261Z,96051.31
2022-12-03T08:20:15.473Z,96050.19
2022-12-03T08:22:43.216Z,96041.19
2022-12-03T08:25:18.230Z,96043.13
2022-12-03T08:27:45.691Z,96044.34
2022-12-03T08:30:15.307Z,96056.53
2022-12-03T08:32:44.675Z,96066.25
2022-12-03T08:35:14.526Z,96058.50
2022-12-03T08:37:41.997Z,96051.78
2022-12-03T08:40:22.751Z,96059.97
2022-12-03T08:42:50.769Z,96059.09
2022-12-03T08:45:39.279Z,96058.66
2022-12-03T08:48:22.221Z,96063.44
2022-12-03T08:50:49.693Z,96056.88
2022-12-03T08:53:28.584Z,96062.97
2022-12-03T08:55:57.811Z,96067.03
2022-12-03T08:58:29.199Z,96058.03
2022-12-03T09:00:59.604Z,96064.13
2022-12-03T09:03:31.379Z,96057.25
2022-12-03T09:05:58.870Z,96047.25
2022-12-03T09:08:26.277Z,96063.00
2022-12-03T09:10:53.763Z,96054.50
2022-12-03T09:13:21.216Z,96049.38
2022-12-03T09:15:48.662Z,96048.78
2022-12-03T09:18:16.055Z,96060.09
2022-12-03T09:20:44.820Z,96049.03
2022-12-03T09:23:12.251Z,96054.69
2022-12-03T09:25:39.748Z,96052.31
2022-12-03T09:28:07.266Z,96054.63
2022-12-03T09:30:34.760Z,96065.63
2022-12-03T09:33:02.336Z,96051.78
2022-12-03T09:35:29.749Z,96065.63
2022-12-03T09:37:58.693Z,96058.66
2022-12-03T09:40:26.190Z,96057.41
2022-12-03T09:42:53.779Z,96060.25
2022-12-03T09:45:21.355Z,96059.72
2022-12-03T09:47:50.279Z,96040.03
2022-12-03T09:50:21.091Z,96042.69
2022-12-03T09:52:50.862Z,96049.22
2022-12-03T09:55:23.512Z,96038.28
2022-12-03T09:57:52.336Z,96042.78
2022-12-03T10:00:23.358Z,96033.41
2022-12-03T10:02:53.149Z,96026.00
2022-12-03T10:05:22.139Z,96047.81
2022-12-03T10:07:50.672Z,96045.34
2022-12-03T10:10:22.035Z,96040.94
2022-12-03T10:12:50.417Z,96032.00
2022-12-03T10:15:20.349Z,96031.13
2022-12-03T10:17:49.238Z,96041.19
2022-12-03T10:20:19.367Z,96035.81
2022-12-03T10:22:48.620Z,96030.50
2022-12-03T10:25:17.731Z,96028.28
2022-12-03T10:27:57.497Z,96033.88
2022-12-03T10:30:28.219Z,96039.50
2022-12-03T10:32:57.770Z,96029.72
2022-12-03T10:35:36.095Z,96018.41
2022-12-03T10:38:05.411Z,96024.94
2022-12-03T10:40:35.171Z,96022.91
2022-12-03T10:43:23.143Z,96011.09
2022-12-03T10:45:52.087Z,96012.06
2022-12-03T10:48:21.546Z,95996.59
2022-12-03T10:50:51.853Z,95996.34
2022-12-03T10:53:21.101Z,96002.44
2022-12-03T10:55:51.101Z,95992.56
2022-12-03T10:58:23.336Z,95984.50
2022-12-03T11:00:52.463Z,95987.44
2022-12-03T11:03:22.691Z,95986.72
2022-12-03T11:05:50.589Z,95976.75
2022-12-03T11:08:20.799Z,95970.66
2022-12-03T11:10:58.146Z,95965.28
2022-12-03T11:13:46.451Z,95971.47
2022-12-03T11:16:14.879Z,95965.88
2022-12-03T11:19:02.947Z,95945.59
2022-12-03T11:21:31.396Z,95933.88
2022-12-03T11:24:21.089Z,95954.25
2022-12-03T11:27:19.025Z,95956.34
2022-12-03T11:30:01.858Z,95962.81
2022-12-03T11:33:08.609Z,95962.56
2022-12-03T11:36:15.931Z,95967.88
2022-12-03T11:38:55.037Z,95958.34
2022-12-03T11:41:26.126Z,95962.34
2022-12-03T11:44:21.771Z,95960.47
2022-12-03T11:46:50.716Z,95951.75
2022-12-03T11:49:37.293Z,95955.53
2022-12-03T11:52:18.787Z,95944.88
2022-12-03T11:54:50.412Z,95950.69
2022-12-03T11:57:28.321Z,95941.00
2022-12-03T12:00:00.655Z,95941.06
2022-12-03T12:02:29.468Z,95944.53
2022-12-03T12:04:56.892Z,95928.34
2022-12-03T12:07:36.723Z,95920.41
2022-12-03T12:10:04.937Z,95926.97
2022-12-03T12:12:38.503Z,95916.91
2022-12-03T12:15:39.086Z,95916.88
2022-12-03T12:18:36.581Z,95913.34
2022-12-03T12:21:37.485Z,95905.69
2022-12-03T12:24:32.858Z,95907.34
2022-12-03T12:27:02.246Z,95900.09
2022-12-03T12:29:29.700Z,95903.75
2022-12-03T12:32:14.911Z,95906.94
2022-12-03T12:34:46.698Z,95905.09
2022-12-03T12:37:18.394Z,95910.78
2022-12-03T12:39:45.934Z,95898.38
2022-12-03T12:42:32.686Z,95901.66
2022-12-03T12:45:06.230Z,95902.91
2022-12-03T12:47:35.282Z,95902.53
2022-12-03T12:50:10.363Z,95900.34
2022-12-03T12:52:41.690Z,95883.75
2022-12-03T12:55:12.123Z,95887.16
2022-12-03T12:57:39.534Z,95886.44
2022-12-03T13:00:08.632Z,95891.81
2022-12-03T13:02:45.790Z,95880.75
2022-12-03T13:05:15.032Z,95877.06
2022-12-03T13:07:44.104Z,95876.25
2022-12-03T13:10:33.872Z,95879.28
2022-12-03T13:13:15.293Z,95874.66
2022-12-03T13:15:50.612Z,95873.06
2022-12-03T13:18:32.112Z,95864.41
2022-12-03T13:21:12.495Z,95852.53
2022-12-03T13:23:40.969Z,95870.47
2022-12-03T13:26:32.931Z,95860.38
2022-12-03T13:29:11.812Z,95860.88
2022-12-03T13:31:43.466Z,95870.09
2022-12-03T13:34:17.414Z,95872.91
2022-12-03T13:36:52.004Z,95859.91
2022-12-03T13:39:28.733Z,95870.94
2022-12-03T13:42:14.089Z,95867.69
2022-12-03T13:44:46.185Z,95861.44
2022-12-03T13:47:15.625Z,95868.94
2022-12-03T13:49:48.548Z,95851.81
2022-12-03T13:52:21.677Z,95871.13
2022-12-03T13:54:51.739Z,95868.56
2022-12-03T13:57:19.688Z,95860.75
2022-12-03T13:59:47.155Z,95855.63
2022-12-03T14:02:14.641Z,95865.13
2022-12-03T14:04:42.126Z,95857.66
2022-12-03T14:07:09.542Z,95856.56
2022-12-03T14:09:38.318Z,95856.94
2022-12-03T14:12:23.756Z,95846.72
2022-12-03T14:14:51.243Z,95851.47
2022-12-03T14:17:18.730Z,95851.47
2022-12-03T14:19:46.223Z,95845.59
2022-12-03T14:22:13.640Z,95840.94
2022-12-03T14:24:42.736Z,95846.47
2022-12-03T14:27:10.175Z,95833.41
2022-12-03T14:29:37.660Z,95845.69
2022-12-03T14:32:05.212Z,95849.50
2022-12-03T14:34:32.709Z,95844.31
2022-12-03T14:37:00.337Z,95846.41
2022-12-03T14:39:27.730Z,95831.03
2022-12-03T14:42:14.491Z,95842.66
2022-12-03T14:44:43.164Z,95837.28
2022-12-03T14:47:11.014Z,95824.47
2022-12-03T14:49:38.541Z,95843.88
2022-12-03T14:52:09.848Z,95837.59
2022-12-03T14:54:41.811Z,95833.09
2022-12-03T14:57:11.210Z,95836.19
2022-12-03T14:59:38.741Z,95829.69
2022-12-03T15:02:06.247Z,95838.09
2022-12-03T15:04:34.491Z,95847.41
2022-12-03T15:07:01.913Z,95851.75
2022-12-03T15:09:29.370Z,95844.84
2022-12-03T15:11:56.831Z,95842.66
2022-12-03T15:14:25.607Z,95846.56
2022-12-03T15:16:53.210Z,95829.69
2022-12-03T15:19:20.711Z,95838.44
2022-12-03T15:21:48.121Z,95821.97
2022-12-03T15:24:15.598Z,95841.31
2022-12-03T15:26:43.001Z,95839.44
2022-12-03T15:29:10.438Z,95839.44
2022-12-03T15:31:39.353Z,95828.59
2022-12-03T15:34:06.876Z,95850.91
2022-12-03T15:36:34.349Z,95847.69
2022-12-03T15:39:01.800Z,95835.69
2022-12-03T15:41:29.947Z,95831.47
2022-12-03T15:43:59.371Z,95838.97
2022-12-03T15:46:28.330Z,95823.59
2022-12-03T15:48:57.505Z,95830.72
2022-12-03T15:51:25.484Z,95834.03
2022-12-03T15:53:52.902Z,95832.41
2022-12-03T15:56:20.552Z,95831.19
2022-12-03T15:58:48.017Z,95833.75
2022-12-03T16:01:17.891Z,95833.91
2022-12-03T16:03:45.371Z,95835.13
2022-12-03T16:06:14.729Z,95833.38
2022-12-03T16:08:42.183Z,95841.81
2022-12-03T16:11:09.593Z,95841.84
2022-12-03T16:13:37.010Z,95843.44
2022-12-03T16:16:04.610Z,95845.38
2022-12-03T16:18:32.076Z,95845.94
2022-12-03T16:20:59.546Z,95843.31
2022-12-03T16:23:28.279Z,95844.66
2022-12-03T16:25:55.704Z,95842.28
2022-12-03T16:28:23.116Z,95853.19
2022-12-03T16:30:50.593Z,95852.28
2022-12-03T16:33:22.520Z,95847.94
2022-12-03T16:35:53.220Z,95851.13
2022-12-03T16:38:20.632Z,95846.78
2022-12-03T16:40:49.377Z,95840.81
2022-12-03T16:43:16.829Z,95844.97
2022-12-03T16:46:09.697Z,95848.13
2022-12-03T16:48:37.216Z,95849.28
2022-12-03T16:51:04.797Z,95843.75
2022-12-03T16:53:32.318Z,95835.50
2022-12-03T16:56:01.171Z,95832.03
2022-12-03T16:58:29.030Z,95842.09
2022-12-03T17:00:56.438Z,95838.00
2022-12-03T17:03:26.694Z,95824.22
2022-12-03T17:05:57.971Z,95824.34
2022-12-03T17:08:25.702Z,95819.59
2022-12-03T17:10:53.175Z,95818.63
2022-12-03T17:13:23.020Z,95823.88
2022-12-03T17:15:50.671Z,95818.00
2022-12-03T17:18:18.230Z,95830.25
2022-12-03T17:20:45.657Z,95834.03
2022-12-03T17:23:13.401Z,95822.81
2022-12-03T17:25:40.908Z,95810.59
2022-12-03T17:28:08.432Z,95825.38
2022-12-03T17:30:37.285Z,95814.94
2022-12-03T17:33:05.080Z,95822.06
2022-12-03T17:35:32.676Z,95815.97
2022-12-03T17:38:02.391Z,95818.34
2022-12-03T17:40:30.225Z,95814.06
2022-12-03T17:42:57.908Z,95805.06
2022-12-03T17:45:25.538Z,95800.34
2022-12-03T17:47:54.447Z,95814.97
2022-12-03T17:50:21.970Z,95813.00
2022-12-03T17:52:49.659Z,95812.25
2022-12-03T17:55:27.811Z,95805.94
2022-12-03T17:58:01.294Z,95803.34
2022-12-03T18:00:31.088Z,95804.56
2022-12-03T18:03:00.030Z,95794.44
2022-12-03T18:05:32.032Z,95805.91
2022-12-03T18:07:59.866Z,95775.91
2022-12-03T18:10:41.461Z,95792.13
2022-12-03T18:13:08.928Z,95799.56
2022-12-03T18:15:38.634Z,95778.69
2022-12-03T18:18:07.596Z,95800.28
2022-12-03T18:20:35.259Z,95760.09
2022-12-03T18:23:04.384Z,95774.22
2022-12-03T18:25:32.129Z,95805.69
2022-12-03T18:27:59.702Z,95806.50
2022-12-03T18:30:27.331Z,95806.50
2022-12-03T18:32:54.786Z,95793.50
2022-12-03T18:35:23.944Z,95800.59
2022-12-03T18:37:52.214Z,95800.66
2022-12-03T18:40:22.968Z,95756.47
2022-12-03T18:42:50.730Z,95779.69
2022-12-03T18:45:18.505Z,95788.16
2022-12-03T18:47:46.286Z,95776.75
2022-12-03T18:50:14.613Z,95784.22
2022-12-03T18:52:43.578Z,95759.88
2022-12-03T18:55:17.664Z,95778.13
2022-12-03T18:57:45.294Z,95755.66
2022-12-03T19:00:14.274Z,95780.09
2022-12-03T19:05:29.565Z,95744.50
2022-12-03T19:07:58.697Z,95765.09
2022-12-03T19:10:27.156Z,95762.25
2022-12-03T19:12:54.878Z,95784.19
2022-12-03T19:15:22.792Z,95704.91
2022-12-03T19:17:51.488Z,95773.22
2022-12-03T19:20:19.259Z,95760.78
2022-12-03T19:22:46.805Z,95725.50
2022-12-03T19:25:16.117Z,95775.16
2022-12-03T19:27:43.994Z,95751.78
2022-12-03T19:30:12.373Z,95738.91
2022-12-03T19:32:39.884Z,95779.09
2022-12-03T19:35:10.999Z,95779.91
2022-12-03T19:37:38.470Z,95771.38
2022-12-03T19:40:07.560Z,95782.03
2022-12-03T19:42:36.477Z,95772.41
2022-12-03T19:45:04.614Z,95777.50
2022-12-03T19:47:33.303Z,95766.41
2022-12-03T19:50:00.881Z,95763.94
2022-12-03T19:52:28.324Z,95781.44
2022-12-03T19:54:57.730Z,95789.50
2022-12-03T19:57:25.480Z,95772.75
2022-12-03T19:59:54.645Z,95762.88
2022-12-03T20:02:22.518Z,95764.22
2022-12-03T20:04:50.247Z,95752.38
2022-12-03T20:07:17.764Z,95774.31
2022-12-03T20:09:47.628Z,95769.81
2022-12-03T20:12:15.341Z,95774.69
2022-12-03T20:14:42.998Z,95760.09
2022-12-03T20:17:11.929Z,95739.72
2022-12-03T20:19:39.551Z,95758.59
2022-12-03T20:22:07.163Z,95749.41
2022-12-03T20:24:34.630Z,95762.28
2022-12-03T20:27:02.252Z,95756.38
2022-12-03T20:29:29.842Z,95757.38
2022-12-03T20:31:57.407Z,95769.19
2022-12-03T20:34:26.471Z,95732.19
2022-12-03T20:36:54.072Z,95757.16
2022-12-03T20:39:21.606Z,95755.03
2022-12-03T20:41:49.141Z,95756.03
2022-12-03T20:44:16.934Z,95755.22
2022-12-03T20:46:44.690Z,95743.97
2022-12-03T20:49:12.397Z,95750.31
2022-12-03T20:51:42.334Z,95733.50
2022-12-03T20:54:10.857Z,95760.63
2022-12-03T20:56:39.340Z,95734.94
2022-12-03T20:59:09.765Z,95745.78
2022-12-03T21:01:38.315Z,95739.59
2022-12-03T21:04:09.871Z,95744.72
2022-12-03T21:06:38.373Z,95755.22
2022-12-03T21:09:08.203Z,95747.13
2022-12-03T21:11:38.880Z,95741.16
2022-12-03T21:14:06.450Z,95753.47
2022-12-03T21:17:06.775Z,95748.47
2022-12-03T21:19:24.715Z,95732.72
2022-12-03T21:21:52.378Z,95753.09
2022-12-03T21:24:21.343Z,95716.09
2022-12-03T21:26:50.180Z,95741.19
2022-12-03T21:29:18.152Z,95731.31
2022-12-03T21:31:46.578Z,95738.25
2022-12-03T21:34:14.164Z,95712.75
2022-12-03T21:36:41.943Z,95740.66
2022-12-03T21:39:09.740Z,95709.00
2022-12-03T21:41:38.765Z,95733.88
2022-12-03T21:44:06.408Z,95747.75
2022-12-03T21:47:09.454Z,95732.72
2022-12-03T21:49:25.287Z,95732.13
2022-12-03T21:51:53.084Z,95738.13
2022-12-03T21:54:20.699Z,95738.69
2022-12-03T21:56:54.267Z,95712.75
2022-12-03T21:59:21.984Z,95722.56
2022-12-03T22:01:49.625Z,95736.88
2022-12-03T22:04:18.421Z,95737.28
2022-12-03T22:06:45.945Z,95742.16
2022-12-03T22:09:13.522Z,95738.47
2022-12-03T22:11:41.808Z,95742.59
2022-12-03T22:14:12.242Z,95724.59
2022-12-03T22:16:39.954Z,95728.75
2022-12-03T22:19:11.505Z,95740.59
2022-12-03T22:21:39.191Z,95731.91
2022-12-03T22:24:07.422Z,95710.34
2022-12-03T22:26:35.344Z,95736.03
2022-12-03T22:29:02.890Z,95723.31
2022-12-03T22:31:31.975Z,95731.22
2022-12-03T22:33:59.589Z,95695.63
2022-12-03T22:36:27.123Z,95721.97
2022-12-03T22:38:54.864Z,95713.69
2022-12-03T22:41:22.605Z,95718.44
2022-12-03T22:43:50.992Z,95720.63
2022-12-03T22:46:19.106Z,95712.25
2022-12-03T22:48:48.323Z,95668.72
2022-12-03T22:51:18.963Z,95710.09
2022-12-03T22:53:46.677Z,95674.28
2022-12-03T22:56:14.349Z,95701.81
2022-12-03T22:58:42.122Z,95690.94
2022-12-03T23:01:10.139Z,95712.25
2022-12-03T23:03:37.954Z,95699.78
2022-12-03T23:06:11.780Z,95688.91
2022-12-03T23:08:39.580Z,95710.25
2022-12-03T23:11:07.623Z,95703.53
2022-12-03T23:13:35.366Z,95707.09
2022-12-03T23:16:03.262Z,95695.69
2022-12-03T23:18:30.820Z,95684.63
2022-12-03T23:20:58.815Z,95678.69
2022-12-03T23:23:29.068Z,95705.97
2022-12-03T23:26:00.476Z,95696.94
2022-12-03T23:28:29.072Z,95706.56
2022-12-03T23:30:57.283Z,95685.25
2022-12-03T23:33:25.587Z,95702.41
2022-12-03T23:35:53.064Z,95693.69
2022-12-03T23:38:21.142Z,95691.91
2022-12-03T23:40:52.817Z,95669.56
2022-12-03T23:43:20.304Z,95692.16
2022-12-03T23:45:47.767Z,95695.69
2022-12-03T23:48:15.230Z,95690.97
2022-12-03T23:50:42.677Z,95675.22
2022-12-03T23:53:10.188Z,95691.47
2022-12-03T23:55:40.773Z,95686.34
2022-12-03T23:58:09.530Z,95686.75
